Time;durP1;ratioP1;P1;durP2;ratioP2;P2;SDS_P1;SDS_P2;PMS_P1;PMS_P2;Temp;Humidity;BMP_temperature;BMP_pressure;BME280_temperature;BME280_humidity;BME280_pressure;Samples;Min_cycle;Max_cycle;Signal;HPM_P1;HPM_P2
2023/03/22 00:00:35;;;;;;;11.35;4.82;;;10.90;99.90;;;;;;5056905;28;20094;-71
2023/03/22 00:03:01;;;;;;;14.80;6.32;;;10.90;99.90;;;;;;5035891;28;20083;-70
2023/03/22 00:05:29;;;;;;;9.32;4.50;;;10.80;99.90;;;;;;5035445;28;20037;-70
2023/03/22 00:07:56;;;;;;;8.85;4.57;;;10.90;99.90;;;;;;5043643;28;20490;-70
2023/03/22 00:10:24;;;;;;;12.30;4.72;;;10.90;99.90;;;;;;5052112;28;20451;-71
2023/03/22 00:12:51;;;;;;;11.43;5.50;;;10.90;99.90;;;;;;5035694;28;20416;-70
2023/03/22 00:15:17;;;;;;;12.40;4.55;;;10.90;99.90;;;;;;5053796;28;20443;-71
2023/03/22 00:17:43;;;;;;;13.20;5.03;;;10.90;99.90;;;;;;5035695;28;20041;-70
2023/03/22 00:20:10;;;;;;;9.77;3.80;;;10.90;99.90;;;;;;5035820;28;20041;-71
2023/03/22 00:22:36;;;;;;;14.50;5.70;;;10.90;99.90;;;;;;5069286;28;20443;-71
2023/03/22 00:25:04;;;;;;;13.30;5.50;;;10.90;99.90;;;;;;5070826;28;20515;-70
2023/03/22 00:27:29;;;;;;;10.32;5.57;;;10.80;99.90;;;;;;5055852;28;20440;-70
2023/03/22 00:29:55;;;;;;;8.80;3.55;;;10.80;99.90;;;;;;5055564;28;20129;-71
2023/03/22 00:32:21;;;;;;;11.63;4.88;;;10.80;99.90;;;;;;5054633;28;20404;-70
2023/03/22 00:34:46;;;;;;;9.50;4.78;;;10.80;99.90;;;;;;5070768;28;20044;-70
2023/03/22 00:37:12;;;;;;;10.45;4.85;;;10.80;99.90;;;;;;5055527;28;20562;-71
2023/03/22 00:39:38;;;;;;;8.30;4.00;;;10.80;99.90;;;;;;5069847;28;20068;-71
2023/03/22 00:42:05;;;;;;;10.02;4.63;;;10.70;99.90;;;;;;5040985;28;20271;-70
2023/03/22 00:44:31;;;;;;;12.00;5.35;;;10.70;99.90;;;;;;5050340;28;20416;-70
2023/03/22 00:46:56;;;;;;;8.82;4.10;;;10.70;99.90;;;;;;5071893;28;20036;-70
2023/03/22 00:49:22;;;;;;;12.45;4.68;;;10.70;99.90;;;;;;5072239;28;20444;-70
2023/03/22 00:51:47;;;;;;;9.27;3.72;;;10.60;99.90;;;;;;5070339;28;20087;-70
2023/03/22 00:54:13;;;;;;;12.43;4.13;;;10.70;99.90;;;;;;5070201;28;20074;-71
2023/03/22 00:56:39;;;;;;;9.13;3.70;;;10.60;99.90;;;;;;5055405;28;20047;-70
2023/03/22 00:59:04;;;;;;;10.70;4.28;;;10.60;99.90;;;;;;5059167;28;20040;-71
2023/03/22 01:01:30;;;;;;;8.88;3.22;;;10.70;99.90;;;;;;5039894;28;20497;-70
2023/03/22 01:03:56;;;;;;;10.07;3.60;;;10.70;99.90;;;;;;5034938;28;20470;-70
2023/03/22 01:06:21;;;;;;;9.50;3.95;;;10.70;99.90;;;;;;5088725;28;20033;-70
2023/03/22 01:08:49;;;;;;;11.40;4.18;;;10.60;99.90;;;;;;5071040;28;20085;-70
2023/03/22 01:11:16;;;;;;;12.35;4.22;;;10.60;99.90;;;;;;5078402;28;20033;-70
2023/03/22 01:13:41;;;;;;;8.00;3.00;;;10.50;99.90;;;;;;5060612;28;20036;-71
2023/03/22 01:16:08;;;;;;;10.85;3.45;;;10.50;99.90;;;;;;5070726;28;20029;-71
2023/03/22 01:18:35;;;;;;;9.93;3.30;;;10.50;99.90;;;;;;5077112;28;20048;-70
2023/03/22 01:21:00;;;;;;;9.85;2.92;;;10.50;99.90;;;;;;5061842;28;20121;-71
2023/03/22 01:23:27;;;;;;;8.98;3.38;;;10.50;99.90;;;;;;5061651;28;20079;-71
2023/03/22 01:25:52;;;;;;;10.60;3.03;;;10.40;99.90;;;;;;5057423;28;20040;-70
2023/03/22 01:28:18;;;;;;;8.95;2.88;;;10.50;99.90;;;;;;5063696;28;20047;-71
2023/03/22 01:30:43;;;;;;;11.98;4.15;;;10.50;99.90;;;;;;5078245;28;20048;-70
2023/03/22 01:33:09;;;;;;;12.43;2.83;;;10.40;99.90;;;;;;5061828;28;20130;-71
2023/03/22 01:35:35;;;;;;;11.18;2.80;;;10.40;99.90;;;;;;5058926;28;20045;-70
2023/03/22 01:38:01;;;;;;;9.52;2.75;;;10.40;99.90;;;;;;5057463;28;20086;-71
2023/03/22 01:40:27;;;;;;;12.77;3.10;;;10.40;99.90;;;;;;5058137;28;20040;-70
2023/03/22 01:42:54;;;;;;;9.98;3.25;;;10.40;99.90;;;;;;5041396;28;20072;-70
2023/03/22 01:45:41;;;;;;;7.07;2.78;;;10.30;99.90;;;;;;5049123;28;20044;-70
2023/03/22 01:48:16;;;;;;;9.35;2.72;;;10.40;99.90;;;;;;5055682;28;20497;-70
2023/03/22 01:50:48;;;;;;;7.13;2.58;;;10.30;99.90;;;;;;5057800;28;20044;-70
2023/03/22 01:53:17;;;;;;;11.35;3.42;;;10.30;99.90;;;;;;5057934;28;20045;-70
2023/03/22 01:55:44;;;;;;;8.20;2.40;;;10.40;99.90;;;;;;5057946;28;20124;-70
2023/03/22 01:58:10;;;;;;;7.60;2.75;;;10.30;99.90;;;;;;5045492;28;20111;-70
2023/03/22 02:00:36;;;;;;;10.05;2.35;;;10.30;99.90;;;;;;5078293;28;20444;-70
2023/03/22 02:03:02;;;;;;;9.73;2.20;;;10.30;99.90;;;;;;5077857;28;20048;-70
2023/03/22 02:05:29;;;;;;;6.95;2.25;;;10.20;99.90;;;;;;5059953;28;20047;-70
2023/03/22 02:07:55;;;;;;;10.68;1.73;;;10.30;99.90;;;;;;5073566;28;20032;-70
2023/03/22 02:10:24;;;;;;;8.25;2.00;;;10.30;99.90;;;;;;5070593;28;20059;-71
2023/03/22 02:13:12;;;;;;;9.25;2.05;;;10.30;99.90;;;;;;5074979;28;20041;-70
2023/03/22 02:15:45;;;;;;;6.45;1.88;;;10.30;99.90;;;;;;5074577;28;20040;-71
2023/03/22 02:18:15;;;;;;;5.82;1.67;;;10.20;99.90;;;;;;5056557;28;20373;-70
2023/03/22 02:20:41;;;;;;;6.53;1.70;;;10.20;99.90;;;;;;5073547;28;20438;-70
2023/03/22 02:23:38;;;;;;;7.80;2.10;;;10.20;99.90;;;;;;5072617;28;20123;-70
2023/03/22 02:26:04;;;;;;;8.40;1.83;;;10.30;99.90;;;;;;5073595;28;20044;-70
2023/03/22 02:28:41;;;;;;;6.22;1.50;;;10.30;99.90;;;;;;5071177;28;20040;-70
2023/03/22 02:31:32;;;;;;;8.43;1.58;;;10.20;99.90;;;;;;5074686;28;20373;-70
2023/03/22 02:34:35;;;;;;;6.03;1.70;;;10.30;99.90;;;;;;5056599;28;20039;-71
2023/03/22 02:37:22;;;;;;;;;;;10.30;99.90;;;;;;5073893;28;20043;-71
2023/03/22 02:40:23;;;;;;;6.22;1.85;;;10.30;99.90;;;;;;5048527;28;20003;-71
2023/03/22 02:42:54;;;;;;;11.13;1.90;;;10.30;99.90;;;;;;5024837;28;20052;-70
2023/03/22 02:45:35;;;;;;;5.28;1.45;;;10.20;99.90;;;;;;5070942;28;20052;-70
2023/03/22 02:48:20;;;;;;;7.88;1.60;;;10.30;99.90;;;;;;5053478;28;20393;-70
2023/03/22 02:50:55;;;;;;;8.75;2.17;;;10.30;99.90;;;;;;5074171;28;20053;-70
2023/03/22 02:53:44;;;;;;;9.55;2.40;;;10.30;99.90;;;;;;5065119;28;20051;-70
2023/03/22 02:56:22;;;;;;;7.88;2.03;;;10.20;99.90;;;;;;5073370;28;20508;-71
2023/03/22 02:58:52;;;;;;;8.43;1.63;;;10.30;99.90;;;;;;5052541;28;20066;-70
2023/03/22 03:01:38;;;;;;;7.05;1.80;;;10.20;99.90;;;;;;5037454;28;20044;-71
2023/03/22 03:04:09;;;;;;;7.07;1.88;;;10.20;99.90;;;;;;5049645;28;20519;-70
2023/03/22 03:06:44;;;;;;;6.17;1.53;;;10.20;99.90;;;;;;5039825;28;20497;-71
2023/03/22 03:09:12;;;;;;;6.82;1.70;;;10.20;99.90;;;;;;5051223;28;20086;-71
2023/03/22 03:11:38;;;;;;;8.13;2.10;;;10.20;99.90;;;;;;5056555;28;20389;-70
2023/03/22 03:14:03;;;;;;;7.10;2.20;;;10.20;99.90;;;;;;5069397;28;20044;-70
2023/03/22 03:16:33;;;;;;;7.05;1.95;;;10.20;99.90;;;;;;5057071;28;20044;-70
2023/03/22 03:19:20;;;;;;;8.15;2.17;;;10.20;99.90;;;;;;5044140;28;20040;-70
2023/03/22 03:22:02;;;;;;;7.78;2.00;;;10.10;99.90;;;;;;5036861;28;20119;-71
2023/03/22 03:24:56;;;;;;;10.55;2.22;;;10.10;99.90;;;;;;5070242;28;20048;-71
2023/03/22 03:27:31;;;;;;;9.55;2.30;;;10.20;99.90;;;;;;5071051;28;20115;-70
2023/03/22 03:30:14;;;;;;;11.55;2.83;;;10.20;99.90;;;;;;5053185;28;20512;-70
2023/03/22 03:32:46;;;;;;;7.60;2.30;;;10.20;99.90;;;;;;5053473;28;20476;-70
2023/03/22 03:35:22;;;;;;;11.97;3.17;;;10.20;99.90;;;;;;5062670;28;20045;-71
2023/03/22 03:38:10;;;;;;;15.07;4.20;;;10.20;99.90;;;;;;5053400;28;20497;-70
2023/03/22 03:40:46;;;;;;;8.02;2.33;;;10.20;99.90;;;;;;5051472;28;20083;-70
2023/03/22 03:43:13;;;;;;;8.07;2.45;;;10.10;99.90;;;;;;5052544;28;20071;-70
2023/03/22 03:45:39;;;;;;;8.57;2.70;;;10.20;99.90;;;;;;5052426;28;20041;-71
2023/03/22 03:48:10;;;;;;;8.40;2.35;;;10.20;99.90;;;;;;5055365;28;20040;-70
2023/03/22 03:50:36;;;;;;;11.18;2.30;;;10.20;99.90;;;;;;5055285;28;20080;-70
2023/03/22 03:53:02;;;;;;;9.25;2.88;;;10.20;99.90;;;;;;5055571;28;20078;-70
2023/03/22 03:55:28;;;;;;;10.70;2.70;;;10.20;99.90;;;;;;5054845;28;20032;-70
2023/03/22 03:57:54;;;;;;;8.48;2.55;;;10.20;99.90;;;;;;5070770;28;20074;-70
2023/03/22 04:00:19;;;;;;;9.23;2.50;;;10.10;99.90;;;;;;5072701;28;20086;-70
2023/03/22 04:02:45;;;;;;;10.27;2.95;;;10.10;99.90;;;;;;5087206;28;20037;-70
2023/03/22 04:05:12;;;;;;;8.93;2.47;;;10.10;99.90;;;;;;5051953;28;20044;-70
2023/03/22 04:07:38;;;;;;;11.57;2.65;;;10.10;99.90;;;;;;5043949;28;20417;-71
2023/03/22 04:10:04;;;;;;;9.18;2.60;;;10.00;99.90;;;;;;5072620;28;20066;-70
2023/03/22 04:12:31;;;;;;;10.30;2.88;;;10.00;99.90;;;;;;5050551;28;20052;-71
2023/03/22 04:14:56;;;;;;;8.65;2.70;;;10.00;99.90;;;;;;5071937;28;20044;-70
2023/03/22 04:17:22;;;;;;;7.20;1.98;;;10.00;99.90;;;;;;5050153;28;20405;-71
2023/03/22 04:19:48;;;;;;;9.73;2.63;;;10.00;99.90;;;;;;5057656;28;20037;-71
2023/03/22 04:22:17;;;;;;;9.88;3.00;;;10.00;99.90;;;;;;5056518;28;20440;-70
2023/03/22 04:24:48;;;;;;;8.15;2.70;;;10.00;99.90;;;;;;5049821;28;20036;-70
2023/03/22 04:27:15;;;;;;;10.15;2.60;;;10.00;99.90;;;;;;5049869;28;20170;-70
2023/03/22 04:29:46;;;;;;;10.70;2.67;;;10.00;99.90;;;;;;5067923;28;20123;-71
2023/03/22 04:32:21;;;;;;;13.10;3.80;;;10.10;99.90;;;;;;5066684;28;20127;-70
2023/03/22 04:34:48;;;;;;;8.05;2.95;;;10.10;99.90;;;;;;5071006;28;20049;-71
2023/03/22 04:37:14;;;;;;;12.20;3.03;;;10.10;99.90;;;;;;5043811;28;20093;-71
2023/03/22 04:39:40;;;;;;;8.90;3.17;;;10.20;99.90;;;;;;5059735;28;20048;-70
2023/03/22 04:42:06;;;;;;;10.70;3.13;;;10.10;99.90;;;;;;5063111;28;20477;-70
2023/03/22 04:44:31;;;;;;;11.73;3.88;;;10.20;99.90;;;;;;5070326;28;20041;-71
2023/03/22 04:46:57;;;;;;;8.90;3.75;;;10.10;99.90;;;;;;5054518;28;20504;-70
2023/03/22 04:49:22;;;;;;;9.10;3.90;;;10.10;99.90;;;;;;5069736;28;20054;-70
2023/03/22 04:51:48;;;;;;;9.77;3.67;;;10.20;99.90;;;;;;5055204;28;20071;-70
2023/03/22 04:54:14;;;;;;;10.82;4.82;;;10.20;99.90;;;;;;5069142;28;20072;-70
2023/03/22 04:56:39;;;;;;;13.98;4.50;;;10.20;99.90;;;;;;5068809;28;20041;-71
2023/03/22 04:59:05;;;;;;;10.60;5.38;;;10.20;99.90;;;;;;5080079;28;20048;-70
2023/03/22 05:01:30;;;;;;;12.10;4.80;;;10.20;99.90;;;;;;5069764;28;20412;-70
2023/03/22 05:03:56;;;;;;;11.30;5.40;;;10.20;99.90;;;;;;5055161;28;20037;-70
2023/03/22 05:06:21;;;;;;;14.48;5.28;;;10.20;99.90;;;;;;5068918;28;20039;-71
2023/03/22 05:08:47;;;;;;;12.35;6.07;;;10.40;99.90;;;;;;5071736;28;20033;-70
2023/03/22 05:11:15;;;;;;;11.35;6.15;;;10.40;99.90;;;;;;5066280;28;20478;-70
2023/03/22 05:13:41;;;;;;;14.80;7.10;;;10.30;99.90;;;;;;5051836;28;20052;-70
2023/03/22 05:16:08;;;;;;;13.38;5.95;;;10.40;99.90;;;;;;5070124;28;20037;-71
2023/03/22 05:18:36;;;;;;;13.63;6.97;;;10.40;99.90;;;;;;5050229;28;20116;-70
2023/03/22 05:21:05;;;;;;;11.20;5.22;;;10.30;99.90;;;;;;5052008;28;20397;-70
2023/03/22 05:23:31;;;;;;;13.90;7.90;;;10.50;99.90;;;;;;5064171;28;20052;-70
2023/03/22 05:25:57;;;;;;;12.40;7.00;;;10.50;99.90;;;;;;5055140;28;20419;-70
2023/03/22 05:28:23;;;;;;;10.75;6.70;;;10.50;99.90;;;;;;5068636;28;20500;-70
2023/03/22 05:30:50;;;;;;;14.50;7.93;;;10.50;99.90;;;;;;5050499;28;20286;-70
2023/03/22 05:33:20;;;;;;;18.20;8.43;;;10.50;99.90;;;;;;5062247;28;20143;-71
2023/03/22 05:35:46;;;;;;;15.52;8.18;;;10.50;99.90;;;;;;5068963;28;20052;-70
2023/03/22 05:38:12;;;;;;;12.90;7.22;;;10.60;99.90;;;;;;5054973;28;20040;-70
2023/03/22 05:40:37;;;;;;;14.77;8.13;;;10.60;99.90;;;;;;5050262;28;20067;-71
2023/03/22 05:43:03;;;;;;;14.20;7.55;;;10.60;99.90;;;;;;5057441;28;20040;-70
2023/03/22 05:45:30;;;;;;;12.30;7.32;;;10.60;99.90;;;;;;5064505;28;20037;-70
2023/03/22 05:47:56;;;;;;;17.55;9.15;;;10.60;99.90;;;;;;5051386;28;20439;-70
2023/03/22 05:50:22;;;;;;;13.50;7.00;;;10.60;99.90;;;;;;5052463;28;20049;-70
2023/03/22 05:52:48;;;;;;;14.77;7.25;;;10.60;99.90;;;;;;5067396;28;20390;-70
2023/03/22 05:55:16;;;;;;;13.00;8.57;;;10.60;99.90;;;;;;5047339;28;20044;-70
2023/03/22 05:57:43;;;;;;;14.25;8.35;;;10.60;99.90;;;;;;5069058;28;20436;-70
2023/03/22 06:00:12;;;;;;;14.25;7.22;;;10.60;99.90;;;;;;5038084;28;20048;-71
2023/03/22 06:02:42;;;;;;;16.73;9.05;;;10.60;99.90;;;;;;5056500;28;20436;-70
2023/03/22 06:05:10;;;;;;;13.57;8.38;;;10.60;99.90;;;;;;5063207;28;20488;-70
2023/03/22 06:07:36;;;;;;;14.77;8.38;;;10.60;99.90;;;;;;5072404;28;20115;-70
2023/03/22 06:10:02;;;;;;;13.13;8.65;;;10.70;99.90;;;;;;5054941;28;20079;-70
2023/03/22 06:12:29;;;;;;;14.77;8.02;;;10.60;99.90;;;;;;5070015;28;20041;-70
2023/03/22 06:14:54;;;;;;;18.10;8.98;;;10.60;99.90;;;;;;5074757;28;20500;-70
2023/03/22 06:17:21;;;;;;;16.20;8.85;;;10.60;99.90;;;;;;5074019;28;20048;-70
2023/03/22 06:19:46;;;;;;;14.98;7.90;;;10.50;99.90;;;;;;5050314;28;20564;-71
2023/03/22 06:22:12;;;;;;;15.07;8.43;;;10.60;99.90;;;;;;5054179;28;20129;-71
2023/03/22 06:24:39;;;;;;;16.23;8.88;;;10.60;99.90;;;;;;5052199;28;20433;-70
2023/03/22 06:27:05;;;;;;;16.60;7.68;;;10.60;99.90;;;;;;5066898;28;20099;-70
2023/03/22 06:29:31;;;;;;;12.40;7.55;;;10.60;99.90;;;;;;5069542;28;20523;-70
2023/03/22 06:31:57;;;;;;;14.88;8.88;;;10.60;99.90;;;;;;5059630;28;20392;-71
2023/03/22 06:34:22;;;;;;;13.90;7.30;;;10.60;99.90;;;;;;5039368;28;20033;-71
2023/03/22 06:36:48;;;;;;;19.00;8.63;;;10.70;99.90;;;;;;5053908;28;20496;-70
2023/03/22 06:39:13;;;;;;;13.18;7.65;;;10.60;99.90;;;;;;5066432;28;20044;-70
2023/03/22 06:41:39;;;;;;;12.48;7.28;;;10.70;99.90;;;;;;5056530;28;20052;-70
2023/03/22 06:44:05;;;;;;;14.05;7.78;;;10.70;99.90;;;;;;5062924;28;20074;-70
2023/03/22 06:46:30;;;;;;;14.18;8.25;;;10.70;99.90;;;;;;5073052;28;20036;-71
2023/03/22 06:48:56;;;;;;;15.60;8.30;;;10.70;99.90;;;;;;5063030;28;20120;-70
2023/03/22 06:51:22;;;;;;;13.10;8.80;;;10.70;99.90;;;;;;5063213;28;20044;-72
2023/03/22 06:53:47;;;;;;;16.70;8.50;;;10.70;99.90;;;;;;5056363;28;20063;-72
2023/03/22 06:56:14;;;;;;;13.88;8.20;;;10.70;99.90;;;;;;5054013;28;20043;-72
2023/03/22 06:58:39;;;;;;;13.32;7.13;;;10.80;99.90;;;;;;5041433;28;20124;-70
2023/03/22 07:01:05;;;;;;;15.65;7.78;;;10.90;99.90;;;;;;5050828;28;20029;-70
2023/03/22 07:03:31;;;;;;;16.27;7.97;;;10.90;99.90;;;;;;5035166;28;20040;-70
2023/03/22 07:06:04;;;;;;;14.07;7.18;;;10.90;99.90;;;;;;5058852;28;20401;-70
2023/03/22 07:08:30;;;;;;;13.45;6.68;;;10.90;99.90;;;;;;5052901;28;20135;-70
2023/03/22 07:10:56;;;;;;;12.98;6.50;;;10.90;99.90;;;;;;5056820;28;20037;-70
2023/03/22 07:13:22;;;;;;;10.93;5.55;;;10.90;99.90;;;;;;5065171;28;20041;-70
2023/03/22 07:15:47;;;;;;;13.85;6.70;;;11.00;99.90;;;;;;5047299;28;20036;-70
2023/03/22 07:18:13;;;;;;;9.85;3.95;;;11.00;99.90;;;;;;5057908;28;20042;-70
2023/03/22 07:20:40;;;;;;;13.63;7.55;;;11.10;99.90;;;;;;5065514;28;20412;-71
2023/03/22 07:23:07;;;;;;;14.98;8.02;;;11.10;99.90;;;;;;5061352;28;20566;-70
2023/03/22 07:25:33;;;;;;;9.77;5.82;;;11.20;99.90;;;;;;5035436;28;20036;-70
2023/03/22 07:27:59;;;;;;;11.00;6.10;;;11.20;99.90;;;;;;5036209;28;20493;-70
2023/03/22 07:30:25;;;;;;;11.88;6.43;;;11.20;99.90;;;;;;5044759;28;20432;-70
2023/03/22 07:32:51;;;;;;;8.50;4.28;;;11.20;99.90;;;;;;5045497;28;20136;-71
2023/03/22 07:35:17;;;;;;;9.35;4.93;;;11.20;99.90;;;;;;5036610;28;20123;-71
2023/03/22 07:37:43;;;;;;;13.65;6.13;;;11.30;99.90;;;;;;5053237;28;20119;-71
2023/03/22 07:40:10;;;;;;;10.13;5.20;;;11.30;99.90;;;;;;5053024;28;20053;-71
2023/03/22 07:42:36;;;;;;;11.35;5.70;;;11.30;99.90;;;;;;5053100;28;20116;-71
2023/03/22 07:45:02;;;;;;;12.27;5.47;;;11.30;99.90;;;;;;5036725;28;20124;-70
2023/03/22 07:47:28;;;;;;;11.88;5.97;;;11.30;99.90;;;;;;5069690;28;20037;-71
2023/03/22 07:49:53;;;;;;;14.38;6.85;;;11.30;99.90;;;;;;5052573;28;20071;-71
2023/03/22 07:52:19;;;;;;;11.40;6.30;;;11.30;99.90;;;;;;5052997;28;20412;-71
2023/03/22 07:54:45;;;;;;;12.35;6.35;;;11.20;99.90;;;;;;5036275;28;20041;-71
2023/03/22 07:57:10;;;;;;;11.15;4.45;;;11.20;99.90;;;;;;5052801;28;20036;-71
2023/03/22 07:59:36;;;;;;;15.07;5.80;;;11.30;99.90;;;;;;5043189;28;20033;-71
2023/03/22 08:02:02;;;;;;;10.07;4.68;;;11.30;99.90;;;;;;5055999;28;20041;-71
2023/03/22 08:04:29;;;;;;;11.40;5.13;;;11.20;99.90;;;;;;5072841;28;20033;-71
2023/03/22 08:06:57;;;;;;;6.80;3.88;;;11.30;99.90;;;;;;5056018;28;20041;-71
2023/03/22 08:09:24;;;;;;;9.95;4.78;;;11.30;99.90;;;;;;5056038;28;20396;-71
2023/03/22 08:11:50;;;;;;;8.18;4.25;;;11.30;99.90;;;;;;5072563;28;20040;-71
2023/03/22 08:14:15;;;;;;;8.20;3.08;;;11.20;99.90;;;;;;5055860;28;20049;-71
2023/03/22 08:16:43;;;;;;;8.93;3.83;;;11.30;99.90;;;;;;5054966;28;20080;-71
2023/03/22 08:19:09;;;;;;;9.55;3.85;;;11.40;99.90;;;;;;5072289;28;20037;-71
2023/03/22 08:21:35;;;;;;;9.35;4.40;;;11.50;99.90;;;;;;5072277;28;20044;-71
2023/03/22 08:24:01;;;;;;;10.32;3.72;;;11.50;99.90;;;;;;5054871;28;20401;-71
2023/03/22 08:26:26;;;;;;;10.32;4.28;;;11.50;99.90;;;;;;5055684;28;20036;-71
2023/03/22 08:28:52;;;;;;;15.60;4.90;;;11.50;99.90;;;;;;5055558;28;20071;-71
2023/03/22 08:31:18;;;;;;;11.75;4.13;;;11.50;99.90;;;;;;5072178;28;20043;-71
2023/03/22 08:33:45;;;;;;;9.88;3.10;;;11.50;99.90;;;;;;5055777;28;20029;-71
2023/03/22 08:36:21;;;;;;;9.60;3.72;;;11.50;99.90;;;;;;5055512;28;20036;-71
2023/03/22 08:38:47;;;;;;;8.60;3.05;;;11.50;99.90;;;;;;5072185;28;20072;-71
2023/03/22 08:41:14;;;;;;;7.25;3.22;;;11.40;99.90;;;;;;5055670;28;20105;-71
2023/03/22 08:43:41;;;;;;;9.00;3.97;;;11.50;99.90;;;;;;5071978;28;20055;-71
2023/03/22 08:46:07;;;;;;;8.85;4.00;;;11.50;99.90;;;;;;5072202;28;20362;-71
2023/03/22 08:48:34;;;;;;;8.02;3.50;;;11.60;99.90;;;;;;5072016;28;20043;-71
2023/03/22 08:51:01;;;;;;;7.47;3.47;;;11.60;99.90;;;;;;5071886;28;20127;-71
2023/03/22 08:53:27;;;;;;;10.77;3.25;;;11.60;99.90;;;;;;5050794;28;20037;-71
2023/03/22 08:55:53;;;;;;;11.45;3.92;;;11.70;99.90;;;;;;5066996;28;20127;-71
2023/03/22 08:58:18;;;;;;;13.43;3.40;;;11.80;99.90;;;;;;5071964;28;20130;-71
2023/03/22 09:00:45;;;;;;;11.98;3.70;;;11.80;99.90;;;;;;5071753;28;20409;-71
2023/03/22 09:03:11;;;;;;;11.90;3.80;;;11.80;99.90;;;;;;5055105;28;20059;-71
2023/03/22 09:05:36;;;;;;;11.27;3.58;;;11.80;99.90;;;;;;5055104;28;20119;-71
2023/03/22 09:08:04;;;;;;;12.68;3.50;;;11.80;99.90;;;;;;5071854;28;20032;-71
2023/03/22 09:10:30;;;;;;;14.55;3.97;;;11.80;99.90;;;;;;5054979;28;20033;-70
2023/03/22 09:12:55;;;;;;;9.73;3.88;;;11.90;99.90;;;;;;5071778;28;20036;-71
2023/03/22 09:15:21;;;;;;;9.93;3.75;;;12.00;99.90;;;;;;5054988;28;20032;-71
2023/03/22 09:17:46;;;;;;;6.75;2.92;;;11.90;99.90;;;;;;5055088;28;20044;-71
2023/03/22 09:20:12;;;;;;;10.40;3.30;;;12.00;99.90;;;;;;5071561;28;20480;-71
2023/03/22 09:22:38;;;;;;;13.85;4.05;;;12.00;99.90;;;;;;5053780;28;20044;-70
2023/03/22 09:25:04;;;;;;;7.72;2.90;;;12.00;99.90;;;;;;5054177;28;20481;-71
2023/03/22 09:27:29;;;;;;;10.68;3.20;;;12.00;99.90;;;;;;5057205;28;20051;-70
2023/03/22 09:29:55;;;;;;;9.45;2.38;;;12.00;99.90;;;;;;5058893;28;20040;-71
2023/03/22 09:32:21;;;;;;;7.93;2.80;;;12.00;99.90;;;;;;5058967;28;20051;-70
2023/03/22 09:34:47;;;;;;;7.90;3.15;;;12.10;99.90;;;;;;5058960;28;20044;-71
2023/03/22 09:37:13;;;;;;;11.77;3.83;;;12.10;99.90;;;;;;5059062;28;20044;-71
2023/03/22 09:39:40;;;;;;;7.70;3.00;;;12.00;99.90;;;;;;5058659;28;20052;-71
2023/03/22 09:42:31;;;;;;;11.80;3.55;;;12.00;99.90;;;;;;5075313;28;20079;-71
2023/03/22 09:45:00;;;;;;;7.87;2.57;;;12.00;99.90;;;;;;5060921;28;20041;-71
2023/03/22 09:47:38;;;;;;;9.40;2.97;;;12.00;99.90;;;;;;5058854;28;20048;-71
2023/03/22 09:50:22;;;;;;;8.10;3.08;;;12.10;99.90;;;;;;5075114;28;20049;-71
2023/03/22 09:52:49;;;;;;;6.00;2.55;;;12.10;99.90;;;;;;5072669;28;20044;-71
2023/03/22 09:55:24;;;;;;;14.95;3.65;;;12.10;99.90;;;;;;5055165;28;20044;-71
2023/03/22 09:58:10;;;;;;;7.43;3.15;;;12.10;99.90;;;;;;5055178;28;20056;-71
2023/03/22 10:00:44;;;;;;;8.50;2.83;;;12.10;99.90;;;;;;5055261;28;20075;-71
2023/03/22 10:03:52;;;;;;;6.95;2.22;;;12.00;99.90;;;;;;5055218;28;20378;-71
2023/03/22 10:06:20;;;;;;;8.77;2.65;;;12.00;99.90;;;;;;5054971;28;20045;-71
2023/03/22 10:09:07;;;;;;;8.32;2.83;;;12.00;99.90;;;;;;5054815;28;20044;-72
2023/03/22 10:11:51;;;;;;;6.82;1.88;;;11.90;99.90;;;;;;5054709;28;20041;-71
2023/03/22 10:14:28;;;;;;;7.25;2.00;;;11.90;99.90;;;;;;5055055;28;20037;-71
2023/03/22 10:16:57;;;;;;;8.13;2.63;;;11.90;99.90;;;;;;5055007;28;20482;-72
2023/03/22 10:19:40;;;;;;;5.05;1.95;;;11.80;99.90;;;;;;5038373;28;20040;-70
2023/03/22 10:22:08;;;;;;;5.78;2.17;;;11.80;99.90;;;;;;5044459;28;20094;-71
2023/03/22 10:24:37;;;;;;;5.22;1.92;;;11.70;99.90;;;;;;5074908;28;20044;-71
2023/03/22 10:27:03;;;;;;;6.10;2.22;;;11.70;99.90;;;;;;5057939;28;20047;-71
2023/03/22 10:29:38;;;;;;;7.80;2.80;;;11.60;99.90;;;;;;5074521;28;20114;-71
2023/03/22 10:32:25;;;;;;;13.60;3.25;;;11.60;99.90;;;;;;5074421;28;20129;-71
2023/03/22 10:34:51;;;;;;;4.95;1.63;;;11.60;99.90;;;;;;5058021;28;20135;-72
2023/03/22 10:37:28;;;;;;;9.23;2.50;;;11.60;99.90;;;;;;5074667;28;20396;-72
2023/03/22 10:39:55;;;;;;;8.40;2.33;;;11.60;99.90;;;;;;5073840;28;20451;-71
2023/03/22 10:42:25;;;;;;;7.68;2.53;;;11.60;99.90;;;;;;5074413;28;20040;-71
2023/03/22 10:45:07;;;;;;;6.50;1.60;;;11.60;99.90;;;;;;5057613;28;20051;-71
2023/03/22 10:47:44;;;;;;;8.25;2.22;;;11.60;99.90;;;;;;5057628;28;20044;-71
2023/03/22 10:50:17;;;;;;;4.25;1.65;;;11.50;99.90;;;;;;5074057;28;20127;-72
2023/03/22 10:53:04;;;;;;;7.57;2.22;;;11.50;99.90;;;;;;5053419;28;20386;-71
2023/03/22 10:55:30;;;;;;;6.93;1.90;;;11.50;99.90;;;;;;5037462;28;20131;-71
2023/03/22 10:58:17;;;;;;;5.85;1.92;;;11.50;99.90;;;;;;5037480;28;20119;-71
2023/03/22 11:00:48;;;;;;;8.88;2.40;;;11.40;99.90;;;;;;5037422;28;20510;-72
2023/03/22 11:03:27;;;;;;;8.30;2.23;;;11.40;99.90;;;;;;5054089;28;20484;-71
2023/03/22 11:06:22;;;;;;;9.13;2.63;;;11.40;99.90;;;;;;5053921;28;20287;-72
2023/03/22 11:08:49;;;;;;;5.78;2.03;;;11.40;99.90;;;;;;5053538;28;20051;-72
2023/03/22 11:11:18;;;;;;;8.98;3.35;;;11.40;99.90;;;;;;5053725;28;20037;-72
2023/03/22 11:13:50;;;;;;;9.75;3.05;;;11.30;99.90;;;;;;5037076;28;20056;-72
2023/03/22 11:16:16;;;;;;;7.05;2.50;;;11.40;99.90;;;;;;5054079;28;20431;-72
2023/03/22 11:18:43;;;;;;;6.28;2.33;;;11.40;99.90;;;;;;5053620;28;20492;-72
2023/03/22 11:21:11;;;;;;;4.95;1.90;;;11.30;99.90;;;;;;5054356;28;20381;-72
2023/03/22 11:23:40;;;;;;;6.25;2.30;;;11.40;99.90;;;;;;5072791;28;20400;-72
2023/03/22 11:26:11;;;;;;;8.57;2.47;;;11.30;99.90;;;;;;5057065;28;20074;-72
2023/03/22 11:28:45;;;;;;;6.38;2.75;;;11.40;99.90;;;;;;5073335;28;20056;-72
2023/03/22 11:31:19;;;;;;;7.88;2.90;;;11.30;99.90;;;;;;5056718;28;20040;-73
2023/03/22 11:33:58;;;;;;;5.35;2.22;;;11.30;99.90;;;;;;5056707;28;20049;-72
2023/03/22 11:36:24;;;;;;;6.47;2.33;;;11.40;99.90;;;;;;5073292;28;20550;-72
2023/03/22 11:39:04;;;;;;;7.28;2.50;;;11.30;99.90;;;;;;5073164;28;20044;-73
2023/03/22 11:41:35;;;;;;;6.22;2.30;;;11.40;99.90;;;;;;5054767;28;20055;-72
2023/03/22 11:44:05;;;;;;;5.25;2.10;;;11.40;99.90;;;;;;5055863;28;20123;-73
2023/03/22 11:46:32;;;;;;;6.93;2.67;;;11.40;99.90;;;;;;5056364;28;20497;-72
2023/03/22 11:49:06;;;;;;;6.88;2.47;;;11.40;99.90;;;;;;5073020;28;20036;-73
2023/03/22 11:51:35;;;;;;;9.60;2.25;;;11.40;99.90;;;;;;5055904;28;20056;-72
2023/03/22 11:54:15;;;;;;;5.68;2.47;;;11.50;99.90;;;;;;5056225;28;20036;-73
2023/03/22 11:56:44;;;;;;;6.70;2.38;;;11.50;99.90;;;;;;5056268;28;20549;-73
2023/03/22 11:59:24;;;;;;;5.97;2.28;;;11.40;99.90;;;;;;5072770;28;20033;-73
2023/03/22 12:01:58;;;;;;;8.77;3.10;;;11.40;99.90;;;;;;5072876;28;20416;-73
2023/03/22 12:04:28;;;;;;;8.02;2.80;;;11.40;99.90;;;;;;5056383;28;20366;-73
2023/03/22 12:07:04;;;;;;;6.65;2.03;;;11.40;99.90;;;;;;5056315;28;20067;-73
2023/03/22 12:09:57;;;;;;;8.35;2.42;;;11.50;99.90;;;;;;5072636;28;20032;-73
2023/03/22 12:12:30;;;;;;;5.32;2.22;;;11.40;99.90;;;;;;5071325;28;20047;-72
2023/03/22 12:15:18;;;;;;;6.13;2.10;;;11.40;99.90;;;;;;5072532;28;20127;-72
2023/03/22 12:18:14;;;;;;;7.40;2.35;;;11.50;99.90;;;;;;5056244;28;20036;-72
2023/03/22 12:20:47;;;;;;;7.93;1.88;;;11.50;99.90;;;;;;5071307;28;20325;-73
2023/03/22 12:23:16;;;;;;;5.18;2.10;;;11.50;99.90;;;;;;5072302;28;20162;-73
2023/03/22 12:25:50;;;;;;;5.82;2.20;;;11.40;99.90;;;;;;5051173;28;20037;-73
2023/03/22 12:28:19;;;;;;;5.22;1.75;;;11.40;99.90;;;;;;5052684;28;20037;-72
2023/03/22 12:30:50;;;;;;;7.05;2.22;;;11.40;99.90;;;;;;5035697;28;20037;-73
2023/03/22 12:33:23;;;;;;;7.15;2.35;;;11.40;99.90;;;;;;5035867;28;20053;-73
2023/03/22 12:35:54;;;;;;;4.50;1.83;;;11.40;99.90;;;;;;5052148;28;20045;-72
2023/03/22 12:38:34;;;;;;;6.25;2.33;;;11.40;99.90;;;;;;5035841;28;20055;-73
2023/03/22 12:41:05;;;;;;;5.47;2.50;;;11.40;99.90;;;;;;5035788;28;20131;-72
2023/03/22 12:43:54;;;;;;;6.05;2.15;;;11.30;99.90;;;;;;5035330;28;20037;-73
2023/03/22 12:46:26;;;;;;;6.10;2.45;;;11.40;99.90;;;;;;5035546;28;20034;-72
2023/03/22 12:48:59;;;;;;;10.45;2.72;;;11.40;99.90;;;;;;5035452;28;20045;-72
2023/03/22 12:51:25;;;;;;;7.13;2.58;;;11.30;99.90;;;;;;5035167;28;20497;-72
2023/03/22 12:53:55;;;;;;;10.05;2.55;;;11.30;99.90;;;;;;5051902;28;20047;-72
2023/03/22 12:56:27;;;;;;;4.65;2.22;;;11.30;99.90;;;;;;5070521;28;20086;-73